Terminal Aerodrome Forecast
Issued by NWS

Home | Current Version | Previous Version | Text Only | Print | Product List | Glossary On
Versions: 1 2 3 4 5 6 7 8 9 10 11 12
000
FTUS46 KPDT 271700
TAFALW
TAF
KALW 271730Z 2718/2818 32005KT P6SM VCSH OVC100
     FM280000 08010KT P6SM BKN100
     FM281200 15011KT P6SM SKC=

USA.gov is the U.S. government's official web portal to all federal, state and local government web resources and services.